createdAt,value
2019-02-24T00:00:00.632Z,11.70
2019-02-24T00:01:00.596Z,11.30
2019-02-24T00:02:00.560Z,12.50
2019-02-24T00:03:00.525Z,11.20
2019-02-24T00:04:00.492Z,11.70
2019-02-24T00:05:00.461Z,10.90
2019-02-24T00:06:00.420Z,10.80
2019-02-24T00:07:00.389Z,11.20
2019-02-24T00:08:00.352Z,11.00
2019-02-24T00:09:00.316Z,11.70
2019-02-24T00:10:00.304Z,11.40
2019-02-24T00:11:00.254Z,12.10
2019-02-24T00:12:00.212Z,11.70
2019-02-24T00:13:00.178Z,11.60
2019-02-24T00:14:00.142Z,12.40
2019-02-24T00:15:00.249Z,11.80
2019-02-24T00:16:00.073Z,11.70
2019-02-24T00:17:00.037Z,11.00
2019-02-24T00:18:00.034Z,11.40
2019-02-24T00:18:59.968Z,12.50
2019-02-24T00:19:59.932Z,12.60
2019-02-24T00:20:59.898Z,12.70
2019-02-24T00:21:59.863Z,11.80
2019-02-24T00:22:59.828Z,12.00
2019-02-24T00:23:59.794Z,11.60
2019-02-24T00:24:59.758Z,12.70
2019-02-24T00:25:59.723Z,12.50
2019-02-24T00:26:59.688Z,14.10
2019-02-24T00:28:06.927Z,13.20
2019-02-24T00:28:59.619Z,13.50
2019-02-24T00:29:59.597Z,12.00
2019-02-24T00:30:59.550Z,12.60
2019-02-24T00:31:59.515Z,13.00
2019-02-24T00:32:59.480Z,12.90
2019-02-24T00:33:59.444Z,12.50
2019-02-24T00:34:59.409Z,12.10
2019-02-24T00:35:59.375Z,11.90
2019-02-24T00:36:59.341Z,12.70
2019-02-24T00:37:59.304Z,11.90
2019-02-24T00:38:59.271Z,12.40
2019-02-24T00:39:59.233Z,12.90
2019-02-24T00:40:59.199Z,13.00
2019-02-24T00:41:59.164Z,13.20
2019-02-24T00:42:59.131Z,13.30
2019-02-24T00:43:59.094Z,12.50
2019-02-24T00:44:59.060Z,12.40
2019-02-24T00:45:59.024Z,13.10
2019-02-24T00:46:58.997Z,14.90
2019-02-24T00:47:58.955Z,15.90
2019-02-24T00:48:58.919Z,19.80
2019-02-24T00:49:58.886Z,18.00
2019-02-24T00:50:58.849Z,19.60
2019-02-24T00:51:58.815Z,18.40
2019-02-24T00:52:58.779Z,18.40
2019-02-24T00:53:58.744Z,18.70
2019-02-24T00:54:58.711Z,17.00
2019-02-24T00:55:58.675Z,16.30
2019-02-24T00:56:58.640Z,16.00
2019-02-24T00:57:58.605Z,16.40
2019-02-24T00:58:58.571Z,16.50
2019-02-24T00:59:58.536Z,17.20
2019-02-24T01:00:58.502Z,17.80
2019-02-24T01:01:59.861Z,19.00
2019-02-24T01:02:58.430Z,18.70
2019-02-24T01:03:58.395Z,19.50
2019-02-24T01:04:58.359Z,19.60
2019-02-24T01:05:58.326Z,20.20
2019-02-24T01:06:58.294Z,19.50
2019-02-24T01:07:58.255Z,18.30
2019-02-24T01:08:58.220Z,17.80
2019-02-24T01:09:58.186Z,17.60
2019-02-24T01:10:58.150Z,17.90
2019-02-24T01:11:58.119Z,18.00
2019-02-24T01:12:58.082Z,17.80
2019-02-24T01:13:58.048Z,18.70
2019-02-24T01:14:58.012Z,18.20
2019-02-24T01:15:57.976Z,18.00
2019-02-24T01:16:57.940Z,18.20
2019-02-24T01:17:57.907Z,17.60
2019-02-24T01:18:57.871Z,18.40
2019-02-24T01:19:57.836Z,17.10
2019-02-24T01:20:57.801Z,17.90
2019-02-24T01:21:57.768Z,17.00
2019-02-24T01:22:57.734Z,17.00
2019-02-24T01:23:57.696Z,16.40
2019-02-24T01:24:57.661Z,16.00
2019-02-24T01:25:57.625Z,16.10
2019-02-24T01:26:57.592Z,15.20
2019-02-24T01:27:57.557Z,15.50
2019-02-24T01:28:57.520Z,15.70
2019-02-24T01:29:57.485Z,15.40
2019-02-24T01:30:57.451Z,14.60
2019-02-24T01:31:57.419Z,15.00
2019-02-24T01:32:57.383Z,14.50
2019-02-24T01:33:57.346Z,13.80
2019-02-24T01:34:57.311Z,14.40
2019-02-24T01:35:57.276Z,12.50
2019-02-24T01:36:57.244Z,14.30
2019-02-24T01:37:57.207Z,13.60
2019-02-24T01:38:57.170Z,14.10
2019-02-24T01:39:57.136Z,13.10
2019-02-24T01:40:57.102Z,13.00
2019-02-24T01:41:57.065Z,13.20
2019-02-24T01:42:57.039Z,14.20
2019-02-24T01:43:56.997Z,13.10
2019-02-24T01:44:56.960Z,13.40
2019-02-24T01:45:56.926Z,14.00
2019-02-24T01:46:56.890Z,15.10
2019-02-24T01:47:56.856Z,14.30
2019-02-24T01:48:56.820Z,13.50
2019-02-24T01:49:56.786Z,14.70
2019-02-24T01:50:56.752Z,14.80
2019-02-24T01:51:56.720Z,14.50
2019-02-24T01:52:56.681Z,14.40
2019-02-24T01:53:56.645Z,14.80
2019-02-24T01:54:56.612Z,14.20
2019-02-24T01:55:56.575Z,14.80
2019-02-24T01:56:56.539Z,15.40
2019-02-24T01:57:56.504Z,14.70
2019-02-24T01:58:56.470Z,15.30
2019-02-24T01:59:56.437Z,14.30
2019-02-24T02:00:56.404Z,14.60
2019-02-24T02:01:56.366Z,15.60
2019-02-24T02:02:56.330Z,15.50
2019-02-24T02:03:56.295Z,15.50
2019-02-24T02:04:56.260Z,14.60
2019-02-24T02:05:56.224Z,13.80
2019-02-24T02:06:56.191Z,14.90
2019-02-24T02:07:56.197Z,14.60
2019-02-24T02:08:56.120Z,15.10
2019-02-24T02:09:56.084Z,15.00
2019-02-24T02:10:56.051Z,15.10
2019-02-24T02:11:56.014Z,14.60
2019-02-24T02:12:57.378Z,15.10
2019-02-24T02:13:55.944Z,14.00
2019-02-24T02:14:55.909Z,15.20
2019-02-24T02:15:55.876Z,15.30
2019-02-24T02:16:55.839Z,15.30
2019-02-24T02:17:55.804Z,15.00
2019-02-24T02:18:55.769Z,14.80
2019-02-24T02:19:55.733Z,15.10
2019-02-24T02:20:55.699Z,15.80
2019-02-24T02:21:55.665Z,14.80
2019-02-24T02:22:55.629Z,14.90
2019-02-24T02:23:55.594Z,14.70
2019-02-24T02:24:55.558Z,14.90
2019-02-24T02:25:55.524Z,15.30
2019-02-24T02:26:55.501Z,14.80
2019-02-24T02:27:55.453Z,14.60
2019-02-24T02:28:55.419Z,14.00
2019-02-24T02:29:55.386Z,15.30
2019-02-24T02:30:55.349Z,14.60
2019-02-24T02:31:55.314Z,14.70
2019-02-24T02:32:55.278Z,15.40
2019-02-24T02:33:55.244Z,15.50
2019-02-24T02:34:55.207Z,16.30
2019-02-24T02:35:55.173Z,16.70
2019-02-24T02:36:55.136Z,17.20
2019-02-24T02:37:55.102Z,17.80
2019-02-24T02:38:55.069Z,15.80
2019-02-24T02:39:55.039Z,15.30
2019-02-24T02:40:54.996Z,15.60
2019-02-24T02:41:54.962Z,15.30
2019-02-24T02:42:54.928Z,15.30
2019-02-24T02:43:54.892Z,15.20
2019-02-24T02:44:54.856Z,15.20
2019-02-24T02:45:54.821Z,14.90
2019-02-24T02:46:54.789Z,16.70
2019-02-24T02:47:54.751Z,15.10
2019-02-24T02:48:54.716Z,14.50
2019-02-24T02:49:54.681Z,14.40
2019-02-24T02:50:54.668Z,14.90
2019-02-24T02:51:54.612Z,15.30
2019-02-24T02:52:54.574Z,16.30
2019-02-24T02:53:54.540Z,16.20
2019-02-24T02:54:54.505Z,15.70
2019-02-24T02:55:54.470Z,15.80
2019-02-24T02:56:54.438Z,16.50
2019-02-24T02:57:54.399Z,15.60
2019-02-24T02:58:54.833Z,15.20
2019-02-24T02:59:54.331Z,16.30
2019-02-24T03:00:54.294Z,16.60
2019-02-24T03:01:54.259Z,15.20
2019-02-24T03:02:54.225Z,15.60
2019-02-24T03:03:54.188Z,15.70
2019-02-24T03:04:54.154Z,15.30
2019-02-24T03:05:54.119Z,16.10
2019-02-24T03:06:54.084Z,14.30
2019-02-24T03:07:54.048Z,16.30
2019-02-24T03:08:54.016Z,15.20
2019-02-24T03:09:53.977Z,16.20
2019-02-24T03:10:53.943Z,16.00
2019-02-24T03:11:53.907Z,15.10
2019-02-24T03:12:53.872Z,17.00
2019-02-24T03:13:53.838Z,16.20
2019-02-24T03:14:53.802Z,16.90
2019-02-24T03:15:53.767Z,16.10
2019-02-24T03:16:53.736Z,15.30
2019-02-24T03:17:53.696Z,16.30
2019-02-24T03:18:53.664Z,16.20
2019-02-24T03:19:53.626Z,15.50
2019-02-24T03:20:53.592Z,16.40
2019-02-24T03:21:53.555Z,16.40
2019-02-24T03:22:53.520Z,15.70
2019-02-24T03:23:53.490Z,16.20
2019-02-24T03:24:53.480Z,17.30
2019-02-24T03:25:53.415Z,15.50
2019-02-24T03:26:53.381Z,16.60
2019-02-24T03:27:53.344Z,15.80
2019-02-24T03:28:53.309Z,15.90
2019-02-24T03:29:53.274Z,15.90
2019-02-24T03:30:53.239Z,16.20
2019-02-24T03:31:53.205Z,16.80
2019-02-24T03:32:53.172Z,16.10
2019-02-24T03:33:53.149Z,16.30
2019-02-24T03:34:53.106Z,16.60
2019-02-24T03:35:53.063Z,16.80
2019-02-24T03:36:53.034Z,16.30
2019-02-24T03:37:52.992Z,17.60
2019-02-24T03:38:52.990Z,17.40
2019-02-24T03:39:52.923Z,17.40
2019-02-24T03:40:52.887Z,17.30
2019-02-24T03:41:52.855Z,17.70
2019-02-24T03:42:52.817Z,17.10
2019-02-24T03:43:52.781Z,18.30
2019-02-24T03:44:52.746Z,17.40
2019-02-24T03:45:52.713Z,16.50
2019-02-24T03:46:52.675Z,17.20
2019-02-24T03:47:52.641Z,18.00
2019-02-24T03:48:52.607Z,17.50
2019-02-24T03:49:52.572Z,17.20
2019-02-24T03:50:52.534Z,17.60
2019-02-24T03:51:52.502Z,18.00
2019-02-24T03:52:52.486Z,17.40
2019-02-24T03:53:52.427Z,18.70
2019-02-24T03:54:52.395Z,16.30
2019-02-24T03:55:52.365Z,16.20
2019-02-24T03:56:52.323Z,17.10
2019-02-24T03:57:52.288Z,16.00
2019-02-24T03:58:52.259Z,17.40
2019-02-24T03:59:52.224Z,17.80
2019-02-24T04:00:52.184Z,16.80
2019-02-24T04:01:52.148Z,17.50
2019-02-24T04:02:52.112Z,17.10
2019-02-24T04:03:52.080Z,19.20
2019-02-24T04:04:52.045Z,17.50
2019-02-24T04:05:52.007Z,17.30
2019-02-24T04:06:51.970Z,17.40
2019-02-24T04:07:51.936Z,16.80
2019-02-24T04:08:51.899Z,17.70
2019-02-24T04:09:51.864Z,18.00
2019-02-24T04:10:51.831Z,16.40
2019-02-24T04:11:51.797Z,17.20
2019-02-24T04:12:51.760Z,17.90
2019-02-24T04:13:51.725Z,17.00
2019-02-24T04:14:51.688Z,17.70
2019-02-24T04:15:51.654Z,17.90
2019-02-24T04:16:51.618Z,17.20
2019-02-24T04:17:51.582Z,18.20
2019-02-24T04:18:51.557Z,16.40
2019-02-24T04:19:51.529Z,17.10
2019-02-24T04:20:51.476Z,18.00
2019-02-24T04:21:51.441Z,18.40
2019-02-24T04:22:51.407Z,16.80
2019-02-24T04:23:51.370Z,18.80
2019-02-24T04:24:51.335Z,17.30
2019-02-24T04:25:51.303Z,17.80
2019-02-24T04:26:51.279Z,17.30
2019-02-24T04:27:51.229Z,18.50
2019-02-24T04:28:51.195Z,17.90
2019-02-24T04:29:51.157Z,17.60
2019-02-24T04:30:51.124Z,19.20
2019-02-24T04:31:51.088Z,18.80
2019-02-24T04:32:51.057Z,17.80
2019-02-24T04:33:51.017Z,18.40
2019-02-24T04:34:50.982Z,16.80
2019-02-24T04:35:50.947Z,17.60
2019-02-24T04:36:50.911Z,18.20
2019-02-24T04:37:50.877Z,17.60
2019-02-24T04:38:50.840Z,18.10
2019-02-24T04:39:50.805Z,18.40
2019-02-24T04:40:50.768Z,18.00
2019-02-24T04:41:50.734Z,18.30
2019-02-24T04:42:50.699Z,19.40
2019-02-24T04:43:50.664Z,19.10
2019-02-24T04:44:50.627Z,17.60
2019-02-24T04:45:50.595Z,17.80
2019-02-24T04:46:50.558Z,18.50
2019-02-24T04:47:50.521Z,17.60
2019-02-24T04:48:50.488Z,18.20
2019-02-24T04:49:50.450Z,17.90
2019-02-24T04:50:50.416Z,17.30
2019-02-24T04:51:50.380Z,17.60
2019-02-24T04:52:50.344Z,17.40
2019-02-24T04:53:50.308Z,16.40
2019-02-24T04:54:50.278Z,17.60
2019-02-24T04:55:50.238Z,17.90
2019-02-24T04:56:50.202Z,17.80
2019-02-24T04:57:50.167Z,17.40
2019-02-24T04:58:50.139Z,17.60
2019-02-24T04:59:50.103Z,18.10
2019-02-24T05:00:50.061Z,16.70
2019-02-24T05:01:50.031Z,17.20
2019-02-24T05:02:49.992Z,17.10
2019-02-24T05:03:49.956Z,17.90
2019-02-24T05:04:49.930Z,16.30
2019-02-24T05:05:49.925Z,17.40
2019-02-24T05:06:49.891Z,17.30
2019-02-24T05:07:49.812Z,18.30
2019-02-24T05:08:49.782Z,18.50
2019-02-24T05:09:49.742Z,17.90
2019-02-24T05:10:49.707Z,17.70
2019-02-24T05:11:49.673Z,18.00
2019-02-24T05:12:49.636Z,17.90
2019-02-24T05:13:49.601Z,16.90
2019-02-24T05:14:49.565Z,19.00
2019-02-24T05:15:49.531Z,18.70
2019-02-24T05:16:49.497Z,19.10
2019-02-24T05:17:49.459Z,18.60
2019-02-24T05:18:49.423Z,18.70
2019-02-24T05:19:49.390Z,18.80
2019-02-24T05:20:49.351Z,17.90
2019-02-24T05:21:49.350Z,19.10
2019-02-24T05:22:49.284Z,18.60
2019-02-24T05:23:49.249Z,18.70
2019-02-24T05:24:49.212Z,17.80
2019-02-24T05:25:49.174Z,18.20
2019-02-24T05:26:49.140Z,18.60
2019-02-24T05:27:49.104Z,19.00
2019-02-24T05:28:49.069Z,18.90
2019-02-24T05:29:49.034Z,18.10
2019-02-24T05:30:48.998Z,19.70
2019-02-24T05:31:48.963Z,18.60
2019-02-24T05:32:48.927Z,19.70
2019-02-24T05:33:48.892Z,19.20
2019-02-24T05:34:48.858Z,18.50
2019-02-24T05:35:48.823Z,19.10
2019-02-24T05:36:48.791Z,18.40
2019-02-24T05:37:48.751Z,19.80
2019-02-24T05:38:48.716Z,19.00
2019-02-24T05:39:48.681Z,19.10
2019-02-24T05:40:48.645Z,18.00
2019-02-24T05:41:48.616Z,18.00
2019-02-24T05:42:48.577Z,17.40
2019-02-24T05:43:48.541Z,19.20
2019-02-24T05:44:48.503Z,18.00
2019-02-24T05:45:48.467Z,18.20
2019-02-24T05:46:48.433Z,18.60
2019-02-24T05:47:48.400Z,18.40
2019-02-24T05:48:48.360Z,18.80
2019-02-24T05:49:48.327Z,20.50
2019-02-24T05:50:48.291Z,18.50
2019-02-24T05:51:48.255Z,18.00
2019-02-24T05:52:48.219Z,18.00
2019-02-24T05:53:48.185Z,17.30
2019-02-24T05:54:48.149Z,18.30
2019-02-24T05:55:48.113Z,18.60
2019-02-24T05:56:48.080Z,19.20
2019-02-24T05:57:48.044Z,19.00
2019-02-24T05:58:48.009Z,18.20
2019-02-24T05:59:54.898Z,18.40
2019-02-24T06:00:47.938Z,18.50
2019-02-24T06:01:47.900Z,17.70
2019-02-24T06:02:47.867Z,18.10
2019-02-24T06:03:47.831Z,18.20
2019-02-24T06:04:47.794Z,18.50
2019-02-24T06:05:47.770Z,18.40
2019-02-24T06:06:47.723Z,19.90
2019-02-24T06:07:47.689Z,17.80
2019-02-24T06:08:47.654Z,18.00
2019-02-24T06:09:47.618Z,17.30
2019-02-24T06:10:47.582Z,18.30
2019-02-24T06:11:47.547Z,17.70
2019-02-24T06:12:47.511Z,18.40
2019-02-24T06:13:47.476Z,17.90
2019-02-24T06:14:47.439Z,16.70
2019-02-24T06:15:47.428Z,17.70
2019-02-24T06:16:47.369Z,17.30
2019-02-24T06:17:47.334Z,17.70
2019-02-24T06:18:47.313Z,18.60
2019-02-24T06:19:47.268Z,18.00
2019-02-24T06:20:47.227Z,16.90
2019-02-24T06:21:47.191Z,19.40
2019-02-24T06:22:47.156Z,18.80
2019-02-24T06:23:47.121Z,18.40
2019-02-24T06:24:47.084Z,18.10
2019-02-24T06:25:47.048Z,18.80
2019-02-24T06:26:47.019Z,17.60
2019-02-24T06:27:46.979Z,18.00
2019-02-24T06:28:46.944Z,18.90
2019-02-24T06:29:46.907Z,17.90
2019-02-24T06:30:46.874Z,18.20
2019-02-24T06:31:46.837Z,17.50
2019-02-24T06:32:46.802Z,17.60
2019-02-24T06:33:46.766Z,16.40
2019-02-24T06:34:46.733Z,17.30
2019-02-24T06:35:46.696Z,17.90
2019-02-24T06:36:46.663Z,16.80
2019-02-24T06:37:46.627Z,17.30
2019-02-24T06:38:46.597Z,16.70
2019-02-24T06:39:46.554Z,17.20
2019-02-24T06:40:46.519Z,17.20
2019-02-24T06:41:46.485Z,17.30
2019-02-24T06:42:46.449Z,16.80
2019-02-24T06:43:46.413Z,16.80
2019-02-24T06:44:46.378Z,16.50
2019-02-24T06:45:46.342Z,16.10
2019-02-24T06:46:46.309Z,16.30
2019-02-24T06:47:46.282Z,16.50
2019-02-24T06:48:46.238Z,16.70
2019-02-24T06:49:46.203Z,15.90
2019-02-24T06:50:46.167Z,15.50
2019-02-24T06:51:46.134Z,15.70
2019-02-24T06:52:46.097Z,15.50
2019-02-24T06:53:46.062Z,15.30
2019-02-24T06:54:46.029Z,15.30
2019-02-24T06:55:45.993Z,14.60
2019-02-24T06:56:45.957Z,14.90
2019-02-24T06:57:45.924Z,15.20
2019-02-24T06:58:45.888Z,15.00
2019-02-24T06:59:45.857Z,14.70
2019-02-24T07:00:45.821Z,15.00
2019-02-24T07:01:45.787Z,15.60
2019-02-24T07:02:45.753Z,15.60
2019-02-24T07:03:45.719Z,15.70
2019-02-24T07:04:45.684Z,17.40
2019-02-24T07:05:45.650Z,14.80
2019-02-24T07:06:45.620Z,14.40
2019-02-24T07:07:45.582Z,15.20
2019-02-24T07:08:45.548Z,15.10
2019-02-24T07:09:45.514Z,15.40
2019-02-24T07:10:45.481Z,16.30
2019-02-24T07:11:45.453Z,16.60
2019-02-24T07:12:45.414Z,17.10
2019-02-24T07:13:45.382Z,37.00
2019-02-24T07:14:45.349Z,33.70
2019-02-24T07:15:45.316Z,24.60
2019-02-24T07:16:45.282Z,18.80
2019-02-24T07:17:45.252Z,17.80
2019-02-24T07:18:45.217Z,16.20
2019-02-24T07:19:45.185Z,15.80
2019-02-24T07:20:45.150Z,15.30
2019-02-24T07:21:45.118Z,16.10
2019-02-24T07:22:45.087Z,19.40
2019-02-24T07:23:45.059Z,18.50
2019-02-24T07:24:45.022Z,18.80
2019-02-24T07:25:44.989Z,17.60
2019-02-24T07:26:44.957Z,16.90
2019-02-24T07:27:44.927Z,18.80
2019-02-24T07:28:44.893Z,18.10
2019-02-24T07:29:44.900Z,18.20
2019-02-24T07:30:44.829Z,18.80
2019-02-24T07:31:44.798Z,18.10
2019-02-24T07:32:44.768Z,17.70
2019-02-24T07:33:44.734Z,17.50
2019-02-24T07:34:44.705Z,26.90
2019-02-24T07:35:44.671Z,21.80
2019-02-24T07:36:44.639Z,16.70
2019-02-24T07:37:44.608Z,19.60
2019-02-24T07:38:44.578Z,27.90
2019-02-24T07:39:44.547Z,22.90
2019-02-24T07:40:44.515Z,16.00
2019-02-24T07:41:44.484Z,20.70
2019-02-24T07:42:44.454Z,16.30
2019-02-24T07:43:44.422Z,17.40
2019-02-24T07:44:44.391Z,16.00
2019-02-24T07:45:44.361Z,15.80
2019-02-24T07:46:44.331Z,15.40
2019-02-24T07:47:44.300Z,15.50
2019-02-24T07:48:44.271Z,14.80
2019-02-24T07:49:44.240Z,15.00
2019-02-24T07:50:44.211Z,16.20
2019-02-24T07:51:44.179Z,16.10
2019-02-24T07:52:44.148Z,16.00
2019-02-24T07:53:44.119Z,16.60
2019-02-24T07:54:44.090Z,16.70
2019-02-24T07:55:44.061Z,15.90
2019-02-24T07:56:44.029Z,16.20
2019-02-24T07:57:44.001Z,16.60
2019-02-24T07:58:43.977Z,16.20
2019-02-24T07:59:43.943Z,15.50
2019-02-24T08:00:43.913Z,15.40
2019-02-24T08:01:43.886Z,15.50
2019-02-24T08:02:43.859Z,15.00
2019-02-24T08:03:43.827Z,15.20
2019-02-24T08:04:43.798Z,15.20
2019-02-24T08:05:43.769Z,15.50
2019-02-24T08:06:43.743Z,15.10
2019-02-24T08:07:43.714Z,15.20
2019-02-24T08:08:43.684Z,15.40
2019-02-24T08:09:43.659Z,15.90
2019-02-24T08:10:43.631Z,15.50
2019-02-24T08:11:43.602Z,15.70
2019-02-24T08:12:43.574Z,15.70
2019-02-24T08:13:44.084Z,14.60
2019-02-24T08:14:43.566Z,15.30
2019-02-24T08:15:43.493Z,16.90
2019-02-24T08:16:43.465Z,16.10
2019-02-24T08:17:43.439Z,16.50
2019-02-24T08:18:49.205Z,15.50
2019-02-24T08:19:43.522Z,14.40
2019-02-24T08:20:43.358Z,15.10
2019-02-24T08:21:43.333Z,16.70
2019-02-24T08:22:43.305Z,15.10
2019-02-24T08:23:43.283Z,16.10
2019-02-24T08:24:43.252Z,16.40
2019-02-24T08:25:43.229Z,15.10
2019-02-24T08:26:43.204Z,15.30
2019-02-24T08:27:43.175Z,15.60
2019-02-24T08:28:43.149Z,15.20
2019-02-24T08:29:43.124Z,15.70
2019-02-24T08:30:43.097Z,16.20
2019-02-24T08:31:43.072Z,14.90
2019-02-24T08:32:43.045Z,15.80
2019-02-24T08:33:43.018Z,16.00
2019-02-24T08:34:42.995Z,15.50
2019-02-24T08:35:42.968Z,15.60
2019-02-24T08:36:42.944Z,15.20
2019-02-24T08:37:42.924Z,15.60
2019-02-24T08:38:42.893Z,15.70
2019-02-24T08:39:42.870Z,15.20
2019-02-24T08:40:42.843Z,15.70
2019-02-24T08:41:42.820Z,15.40
2019-02-24T08:42:42.795Z,15.90
2019-02-24T08:43:42.770Z,15.40
2019-02-24T08:44:42.746Z,15.50
2019-02-24T08:45:42.724Z,15.40
2019-02-24T08:46:42.696Z,15.00
2019-02-24T08:47:42.673Z,15.60
2019-02-24T08:48:42.648Z,15.30
2019-02-24T08:49:42.623Z,15.00
2019-02-24T08:50:42.599Z,17.90
2019-02-24T08:51:42.576Z,17.40
2019-02-24T08:52:42.556Z,16.30
2019-02-24T08:53:42.526Z,15.30
2019-02-24T08:54:42.503Z,15.50
2019-02-24T08:55:42.481Z,15.80
2019-02-24T08:56:42.456Z,16.20
2019-02-24T08:57:42.432Z,15.60
2019-02-24T08:58:42.408Z,15.80
2019-02-24T08:59:42.383Z,15.80
2019-02-24T09:00:50.800Z,15.40
2019-02-24T09:01:42.339Z,16.20
2019-02-24T09:02:42.313Z,17.60
2019-02-24T09:03:42.291Z,17.20
2019-02-24T09:04:42.265Z,17.00
2019-02-24T09:05:42.243Z,15.90
2019-02-24T09:06:42.220Z,14.40
2019-02-24T09:07:42.197Z,15.80
2019-02-24T09:08:42.173Z,16.40
2019-02-24T09:09:42.149Z,16.20
2019-02-24T09:10:42.127Z,17.40
2019-02-24T09:11:42.103Z,16.40
2019-02-24T09:12:42.080Z,15.90
2019-02-24T09:13:42.059Z,17.00
2019-02-24T09:14:42.040Z,17.00
2019-02-24T09:15:42.010Z,16.50
2019-02-24T09:16:41.989Z,17.10
2019-02-24T09:17:41.963Z,18.90
2019-02-24T09:18:41.940Z,17.90
2019-02-24T09:19:41.919Z,17.20
2019-02-24T09:20:41.896Z,17.80
2019-02-24T09:21:41.875Z,17.40
2019-02-24T09:22:41.846Z,17.50
2019-02-24T09:23:41.824Z,16.20
2019-02-24T09:24:41.800Z,17.60
2019-02-24T09:25:41.778Z,16.90
2019-02-24T09:26:41.753Z,16.00
2019-02-24T09:27:41.732Z,16.40
2019-02-24T09:28:41.706Z,15.20
2019-02-24T09:29:41.685Z,15.70
2019-02-24T09:30:41.807Z,14.60
2019-02-24T09:31:41.638Z,14.70
2019-02-24T09:32:41.614Z,14.90
2019-02-24T09:33:41.594Z,15.10
2019-02-24T09:34:41.570Z,14.60
2019-02-24T09:35:41.547Z,14.20
2019-02-24T09:36:41.523Z,15.10
2019-02-24T09:37:41.503Z,14.90
2019-02-24T09:38:41.481Z,18.50
2019-02-24T09:39:41.460Z,15.90
2019-02-24T09:40:41.435Z,13.00
2019-02-24T09:41:41.411Z,11.90
2019-02-24T09:42:41.390Z,12.40
2019-02-24T09:43:41.369Z,11.50
2019-02-24T09:44:41.344Z,12.50
2019-02-24T09:45:41.326Z,11.70
2019-02-24T09:46:41.303Z,12.20
2019-02-24T09:47:46.752Z,12.70
2019-02-24T09:48:41.262Z,12.00
2019-02-24T09:49:41.237Z,12.80
2019-02-24T09:50:41.217Z,11.30
2019-02-24T09:51:41.194Z,12.90
2019-02-24T09:52:41.173Z,12.70
2019-02-24T09:53:41.152Z,11.70
2019-02-24T09:54:41.130Z,11.80
2019-02-24T09:55:41.109Z,11.60
2019-02-24T09:56:41.086Z,11.80
2019-02-24T09:57:41.066Z,11.80
2019-02-24T09:58:41.044Z,11.00
2019-02-24T09:59:41.023Z,11.50
2019-02-24T10:00:41.001Z,11.80
2019-02-24T10:01:40.989Z,13.80
2019-02-24T10:02:40.958Z,15.80
2019-02-24T10:03:40.940Z,15.90
2019-02-24T10:04:40.914Z,13.10
2019-02-24T10:05:40.893Z,13.00
2019-02-24T10:06:40.874Z,11.20
2019-02-24T10:07:40.910Z,11.70
2019-02-24T10:08:40.829Z,15.20
2019-02-24T10:09:40.810Z,12.20
2019-02-24T10:10:40.791Z,11.70
2019-02-24T10:11:40.764Z,10.90
2019-02-24T10:12:40.743Z,10.40
2019-02-24T10:13:40.721Z,10.00
2019-02-24T10:14:40.704Z,9.90
2019-02-24T10:15:40.678Z,10.00
2019-02-24T10:16:40.658Z,9.70
2019-02-24T10:17:40.639Z,10.50
2019-02-24T10:18:40.615Z,13.70
2019-02-24T10:19:40.594Z,14.90
2019-02-24T10:20:40.575Z,14.70
2019-02-24T10:21:40.552Z,14.20
2019-02-24T10:22:40.530Z,14.00
2019-02-24T10:23:40.508Z,14.60
2019-02-24T10:24:40.489Z,13.80
2019-02-24T10:25:40.466Z,15.90
2019-02-24T10:26:40.447Z,15.00
2019-02-24T10:27:40.424Z,16.60
2019-02-24T10:28:40.402Z,16.20
2019-02-24T10:29:40.382Z,17.70
2019-02-24T10:30:40.361Z,15.90
2019-02-24T10:31:40.340Z,15.50
2019-02-24T10:32:40.318Z,16.00
2019-02-24T10:33:40.297Z,15.10
2019-02-24T10:34:40.277Z,15.00
2019-02-24T10:35:40.255Z,14.80
2019-02-24T10:36:40.234Z,14.00
2019-02-24T10:37:40.216Z,11.40
2019-02-24T10:38:40.192Z,8.50
2019-02-24T10:39:40.172Z,8.40
2019-02-24T10:40:40.151Z,9.30
2019-02-24T10:41:40.128Z,8.50
2019-02-24T10:42:40.108Z,7.80
2019-02-24T10:43:40.089Z,8.30
2019-02-24T10:44:40.066Z,8.50
2019-02-24T10:45:40.044Z,8.20
2019-02-24T10:46:40.024Z,8.10
2019-02-24T10:47:40.003Z,8.30
2019-02-24T10:48:39.980Z,8.20
2019-02-24T10:49:39.959Z,8.50
2019-02-24T10:50:39.938Z,8.50
2019-02-24T10:51:39.918Z,8.20
2019-02-24T10:52:39.897Z,8.20
2019-02-24T10:53:39.876Z,7.30
2019-02-24T10:54:39.855Z,8.10
2019-02-24T10:55:39.836Z,8.50
2019-02-24T10:56:39.814Z,8.00
2019-02-24T10:57:39.850Z,7.40
2019-02-24T10:58:39.777Z,8.10
2019-02-24T10:59:39.753Z,7.50
2019-02-24T11:00:39.731Z,8.00
2019-02-24T11:01:39.715Z,7.50
2019-02-24T11:02:39.693Z,7.50
2019-02-24T11:03:39.670Z,7.70
2019-02-24T11:04:39.648Z,8.00
2019-02-24T11:05:39.631Z,7.70
2019-02-24T11:06:39.610Z,7.60
2019-02-24T11:07:39.590Z,6.90
2019-02-24T11:08:39.566Z,7.20
2019-02-24T11:09:39.545Z,7.50
2019-02-24T11:10:39.526Z,6.80
2019-02-24T11:11:39.506Z,6.70
2019-02-24T11:12:39.485Z,6.50
2019-02-24T11:13:39.460Z,7.10
2019-02-24T11:14:39.490Z,7.70
2019-02-24T11:15:39.419Z,7.00
2019-02-24T11:16:39.402Z,6.60
2019-02-24T11:17:39.376Z,7.40
2019-02-24T11:18:39.359Z,7.20
2019-02-24T11:19:39.337Z,7.50
2019-02-24T11:20:39.312Z,7.20
2019-02-24T11:21:39.293Z,8.40
2019-02-24T11:22:39.273Z,7.20
2019-02-24T11:23:39.252Z,7.10
2019-02-24T11:24:39.231Z,7.70
2019-02-24T11:25:39.209Z,7.20
2019-02-24T11:26:39.187Z,7.90
2019-02-24T11:27:39.169Z,8.10
2019-02-24T11:28:39.145Z,7.10
2019-02-24T11:29:39.125Z,7.30
2019-02-24T11:30:39.102Z,7.20
2019-02-24T11:31:39.082Z,7.80
2019-02-24T11:32:39.060Z,7.30
2019-02-24T11:33:39.040Z,8.00
2019-02-24T11:34:39.019Z,7.70
2019-02-24T11:35:39.000Z,8.20
2019-02-24T11:36:38.975Z,8.00
2019-02-24T11:37:38.954Z,7.70
2019-02-24T11:38:38.933Z,7.10
2019-02-24T11:39:38.911Z,7.40
2019-02-24T11:40:38.889Z,7.80
2019-02-24T11:41:38.868Z,7.00
2019-02-24T11:42:38.847Z,7.10
2019-02-24T11:43:38.827Z,7.30
2019-02-24T11:44:38.806Z,7.30
2019-02-24T11:45:38.783Z,7.50
2019-02-24T11:46:38.771Z,8.10
2019-02-24T11:47:38.743Z,8.10
2019-02-24T11:48:38.720Z,7.30
2019-02-24T11:49:38.700Z,8.00
2019-02-24T11:50:38.678Z,7.70
2019-02-24T11:51:38.659Z,7.60
2019-02-24T11:52:38.636Z,7.70
2019-02-24T11:53:38.617Z,7.90
2019-02-24T11:54:38.595Z,7.90
2019-02-24T11:55:38.574Z,8.50
2019-02-24T11:56:38.553Z,7.90
2019-02-24T11:57:38.532Z,7.80
2019-02-24T11:58:38.512Z,7.80
2019-02-24T11:59:38.490Z,7.70
2019-02-24T12:00:38.469Z,7.90
2019-02-24T12:01:47.108Z,7.90
2019-02-24T12:02:38.433Z,7.80
2019-02-24T12:03:38.406Z,8.20
2019-02-24T12:04:38.385Z,8.40
2019-02-24T12:05:38.363Z,7.60
2019-02-24T12:06:38.343Z,7.60
2019-02-24T12:07:38.322Z,7.40
2019-02-24T12:08:38.299Z,8.00
2019-02-24T12:09:38.277Z,7.80
2019-02-24T12:10:38.257Z,8.00
2019-02-24T12:11:38.236Z,7.80
2019-02-24T12:12:38.214Z,7.60
2019-02-24T12:13:38.192Z,7.60
2019-02-24T12:14:38.171Z,8.10
2019-02-24T12:15:38.150Z,7.50
2019-02-24T12:16:38.128Z,7.70
2019-02-24T12:17:38.108Z,7.30
2019-02-24T12:18:38.086Z,7.30
2019-02-24T12:19:38.064Z,8.30
2019-02-24T12:20:38.043Z,7.40
2019-02-24T12:21:38.021Z,7.80
2019-02-24T12:22:38.001Z,7.50
2019-02-24T12:23:37.981Z,7.10
2019-02-24T12:24:37.955Z,7.20
2019-02-24T12:25:37.935Z,7.90
2019-02-24T12:26:37.915Z,7.40
2019-02-24T12:27:37.901Z,7.50
2019-02-24T12:28:37.872Z,7.80
2019-02-24T12:29:37.849Z,7.00
2019-02-24T12:30:37.828Z,11.50
2019-02-24T12:31:37.806Z,10.60
2019-02-24T12:32:37.784Z,8.10
2019-02-24T12:33:37.762Z,7.70
2019-02-24T12:34:37.741Z,7.70
2019-02-24T12:35:37.720Z,7.30
2019-02-24T12:36:37.700Z,8.00
2019-02-24T12:37:37.677Z,7.80
2019-02-24T12:38:37.653Z,7.60
2019-02-24T12:39:37.634Z,8.70
2019-02-24T12:40:37.613Z,8.40
2019-02-24T12:41:37.590Z,7.80
2019-02-24T12:42:37.570Z,8.50
2019-02-24T12:43:37.591Z,7.80
2019-02-24T12:44:37.534Z,7.20
2019-02-24T12:45:37.507Z,7.20
2019-02-24T12:46:37.485Z,7.60
2019-02-24T12:47:37.464Z,7.50
2019-02-24T12:48:37.440Z,7.70
2019-02-24T12:49:37.423Z,7.40
2019-02-24T12:50:37.400Z,6.90
2019-02-24T12:51:37.378Z,7.00
2019-02-24T12:52:37.356Z,7.00
2019-02-24T12:53:37.335Z,7.40
2019-02-24T12:54:37.315Z,7.40
2019-02-24T12:55:37.295Z,6.70
2019-02-24T12:56:37.270Z,15.40